createdAt,value
2022-09-25T00:02:41.770Z,98183.81
2022-09-25T00:05:46.698Z,98184.63
2022-09-25T00:08:49.934Z,98184.03
2022-09-25T00:11:53.932Z,98174.56
2022-09-25T00:14:57.227Z,98183.38
2022-09-25T00:17:59.777Z,98184.53
2022-09-25T00:21:01.690Z,98178.03
2022-09-25T00:24:06.396Z,98180.06
2022-09-25T00:27:10.280Z,98185.53
2022-09-25T00:30:14.370Z,98178.66
2022-09-25T00:33:16.939Z,98180.06
2022-09-25T00:36:19.731Z,98176.72
2022-09-25T00:39:22.533Z,98173.31
2022-09-25T00:42:26.676Z,98176.72
2022-09-25T00:45:29.425Z,98166.75
2022-09-25T00:48:32.407Z,98165.84
2022-09-25T00:51:42.980Z,98154.16
2022-09-25T00:54:48.128Z,98153.78
2022-09-25T00:57:54.304Z,98142.16
2022-09-25T01:00:57.064Z,98137.56
2022-09-25T01:04:00.411Z,98138.38
2022-09-25T01:07:03.354Z,98132.97
2022-09-25T01:10:08.054Z,98133.88
2022-09-25T01:13:12.804Z,98137.94
2022-09-25T01:16:20.368Z,98138.06
2022-09-25T01:19:32.618Z,98138.59
2022-09-25T01:22:47.844Z,98133.63
2022-09-25T01:26:01.434Z,98136.03
2022-09-25T01:29:12.426Z,98139.03
2022-09-25T01:32:20.940Z,98138.25
2022-09-25T01:35:30.043Z,98130.88
2022-09-25T01:38:35.391Z,98137.38
2022-09-25T01:41:41.521Z,98138.69
2022-09-25T01:44:47.681Z,98141.88
2022-09-25T01:47:52.063Z,98151.81
2022-09-25T01:50:58.576Z,98151.44
2022-09-25T01:54:05.163Z,98144.13
2022-09-25T01:57:10.432Z,98147.72
2022-09-25T02:00:18.964Z,98157.50
2022-09-25T02:03:25.955Z,98146.59
2022-09-25T02:06:29.092Z,98153.06
2022-09-25T02:09:37.608Z,98151.78
2022-09-25T02:12:43.393Z,98145.50
2022-09-25T02:15:49.578Z,98140.28
2022-09-25T02:19:10.269Z,98141.38
2022-09-25T02:22:17.385Z,98147.91
2022-09-25T02:25:21.970Z,98149.06
2022-09-25T02:28:24.576Z,98141.97
2022-09-25T02:31:31.094Z,98145.25
2022-09-25T02:34:34.166Z,98143.66
2022-09-25T02:37:36.821Z,98138.25
2022-09-25T02:40:45.233Z,98143.84
2022-09-25T02:43:55.764Z,98140.13
2022-09-25T02:47:08.295Z,98145.34
2022-09-25T02:50:17.333Z,98137.13
2022-09-25T02:53:24.352Z,98129.22
2022-09-25T02:56:31.096Z,98133.38
2022-09-25T02:59:36.442Z,98125.47
2022-09-25T03:02:41.129Z,98125.63
2022-09-25T03:05:44.140Z,98126.00
2022-09-25T03:08:49.379Z,98122.09
2022-09-25T03:11:51.916Z,98129.06
2022-09-25T03:14:54.600Z,98129.97
2022-09-25T03:17:58.585Z,98126.13
2022-09-25T03:21:01.218Z,98130.81
2022-09-25T03:24:03.958Z,98135.50
2022-09-25T03:27:06.521Z,98135.94
2022-09-25T03:30:10.146Z,98138.00
2022-09-25T03:33:14.486Z,98143.94
2022-09-25T03:36:19.384Z,98139.59
2022-09-25T03:39:22.070Z,98135.94
2022-09-25T03:42:27.624Z,98142.16
2022-09-25T03:45:30.278Z,98136.78
2022-09-25T03:48:34.425Z,98142.34
2022-09-25T03:51:37.114Z,98139.53
2022-09-25T03:54:40.052Z,98134.41
2022-09-25T03:57:42.922Z,98121.50
2022-09-25T04:00:46.827Z,98123.06
2022-09-25T04:03:51.167Z,98121.38
2022-09-25T04:06:53.776Z,98117.72
2022-09-25T04:09:56.278Z,98120.06
2022-09-25T04:12:59.069Z,98115.19
2022-09-25T04:16:03.643Z,98117.41
2022-09-25T04:19:07.874Z,98124.72
2022-09-25T04:22:10.516Z,98129.94
2022-09-25T04:25:14.268Z,98130.63
2022-09-25T04:28:16.950Z,98131.34
2022-09-25T04:31:19.743Z,98127.09
2022-09-25T04:34:22.740Z,98130.28
2022-09-25T04:37:26.218Z,98128.59
2022-09-25T04:40:28.833Z,98125.75
2022-09-25T04:43:32.904Z,98133.44
2022-09-25T04:46:35.571Z,98138.91
2022-09-25T04:49:39.714Z,98136.06
2022-09-25T04:52:42.300Z,98142.91
2022-09-25T04:55:46.159Z,98135.84
2022-09-25T04:58:50.369Z,98129.13
2022-09-25T05:01:53.163Z,98139.66
2022-09-25T05:04:57.226Z,98126.41
2022-09-25T05:08:01.374Z,98134.19
2022-09-25T05:11:04.331Z,98127.53
2022-09-25T05:14:07.534Z,98133.34
2022-09-25T05:17:11.312Z,98132.69
2022-09-25T05:20:16.135Z,98127.31
2022-09-25T05:23:18.765Z,98136.41
2022-09-25T05:26:22.544Z,98139.69
2022-09-25T05:29:25.256Z,98137.75
2022-09-25T05:32:27.875Z,98130.78
2022-09-25T05:35:33.147Z,98140.38
2022-09-25T05:38:36.855Z,98141.25
2022-09-25T05:41:39.516Z,98141.25
2022-09-25T05:44:42.270Z,98139.66
2022-09-25T05:47:45.039Z,98148.06
2022-09-25T05:50:58.846Z,98143.25
2022-09-25T05:54:01.298Z,98148.31
2022-09-25T05:57:04.049Z,98147.69
2022-09-25T06:00:09.216Z,98148.50
2022-09-25T06:03:12.281Z,98141.25
2022-09-25T06:06:16.256Z,98135.25
2022-09-25T06:09:19.066Z,98149.13
2022-09-25T06:12:23.158Z,98148.72
2022-09-25T06:15:27.304Z,98145.53
2022-09-25T06:18:29.981Z,98142.69
2022-09-25T06:21:34.030Z,98142.06
2022-09-25T06:24:36.683Z,98151.38
2022-09-25T06:27:39.374Z,98147.78
2022-09-25T06:30:41.985Z,98152.38
2022-09-25T06:33:46.243Z,98144.03
2022-09-25T06:36:50.284Z,98147.38
2022-09-25T06:39:52.983Z,98150.47
2022-09-25T06:42:59.040Z,98151.91
2022-09-25T06:46:03.627Z,98152.63
2022-09-25T06:49:06.595Z,98146.03
2022-09-25T06:52:10.794Z,98146.31
2022-09-25T06:55:13.369Z,98149.72
2022-09-25T06:58:17.552Z,98143.66
2022-09-25T07:01:20.360Z,98153.47
2022-09-25T07:04:22.613Z,98152.66
2022-09-25T07:07:26.810Z,98159.38
2022-09-25T07:10:29.622Z,98159.19
2022-09-25T07:13:35.083Z,98158.06
2022-09-25T07:16:37.709Z,98161.69
2022-09-25T07:19:40.416Z,98167.56
2022-09-25T07:22:44.419Z,98168.78
2022-09-25T07:25:47.879Z,98161.81
2022-09-25T07:28:51.446Z,98164.41
2022-09-25T07:31:54.074Z,98157.91
2022-09-25T07:34:56.726Z,98161.34
2022-09-25T07:38:00.629Z,98164.22
2022-09-25T07:41:03.269Z,98163.97
2022-09-25T07:47:28.955Z,98164.41
2022-09-25T07:50:32.775Z,98168.38
2022-09-25T07:53:36.962Z,98165.84
2022-09-25T07:56:39.857Z,98171.41
2022-09-25T07:59:42.559Z,98169.84
2022-09-25T08:02:45.467Z,98171.44
2022-09-25T08:05:48.228Z,98177.03
2022-09-25T08:08:52.310Z,98172.09
2022-09-25T08:11:55.065Z,98182.16
2022-09-25T08:14:57.890Z,98177.38
2022-09-25T08:18:00.481Z,98176.66
2022-09-25T08:21:03.886Z,98175.56
2022-09-25T08:24:07.933Z,98167.69
2022-09-25T08:27:10.847Z,98171.94
2022-09-25T08:30:14.101Z,98176.44
2022-09-25T08:33:17.041Z,98178.19
2022-09-25T08:36:19.854Z,98167.97
2022-09-25T08:39:23.917Z,98172.56
2022-09-25T08:42:30.574Z,98166.72
2022-09-25T08:45:52.383Z,98163.81
2022-09-25T08:49:06.265Z,98162.16
2022-09-25T08:52:12.497Z,98159.81
2022-09-25T08:55:18.409Z,98150.78
2022-09-25T08:58:24.613Z,98149.31
2022-09-25T09:01:29.576Z,98153.16
2022-09-25T09:04:33.775Z,98146.03
2022-09-25T09:07:40.241Z,98150.28
2022-09-25T09:10:45.371Z,98144.34
2022-09-25T09:13:51.536Z,98152.03
2022-09-25T09:17:02.110Z,98156.72
2022-09-25T09:20:15.762Z,98153.63
2022-09-25T09:23:18.864Z,98153.00
2022-09-25T09:26:28.886Z,98154.94
2022-09-25T09:29:41.596Z,98147.00
2022-09-25T09:32:55.239Z,98143.09
2022-09-25T09:36:00.877Z,98150.59
2022-09-25T09:39:07.641Z,98149.56
2022-09-25T09:42:19.614Z,98148.00
2022-09-25T09:45:28.298Z,98136.50
2022-09-25T09:48:35.674Z,98138.88
2022-09-25T09:51:41.985Z,98138.47
2022-09-25T09:54:47.416Z,98137.66
2022-09-25T09:57:53.132Z,98135.75
2022-09-25T10:00:56.034Z,98141.78
2022-09-25T10:04:04.414Z,98143.13
2022-09-25T10:07:09.711Z,98140.84
2022-09-25T10:10:15.249Z,98138.59
2022-09-25T10:13:21.783Z,98139.47
2022-09-25T10:16:25.156Z,98133.25
2022-09-25T10:19:29.160Z,98136.28
2022-09-25T10:22:33.720Z,98128.63
2022-09-25T10:25:38.459Z,98138.66
2022-09-25T10:28:44.044Z,98134.88
2022-09-25T10:31:46.909Z,98130.25
2022-09-25T10:34:53.456Z,98131.03
2022-09-25T10:37:58.763Z,98132.09
2022-09-25T10:41:04.140Z,98132.44
2022-09-25T10:44:22.330Z,98140.56
2022-09-25T10:47:49.066Z,98143.75
2022-09-25T10:51:06.714Z,98137.63
2022-09-25T10:54:13.811Z,98139.53
2022-09-25T10:57:18.736Z,98139.03
2022-09-25T11:00:25.078Z,98148.22
2022-09-25T11:03:29.426Z,98140.03
2022-09-25T11:06:34.873Z,98142.34
2022-09-25T11:09:37.784Z,98141.34
2022-09-25T11:12:45.298Z,98146.75
2022-09-25T11:15:53.288Z,98152.13
2022-09-25T11:19:08.641Z,98148.22
2022-09-25T11:22:18.130Z,98150.09
2022-09-25T11:25:25.693Z,98151.50
2022-09-25T11:28:32.594Z,98154.06
2022-09-25T11:31:39.788Z,98148.78
2022-09-25T11:34:57.224Z,98149.97
2022-09-25T11:38:05.427Z,98154.06
2022-09-25T11:41:14.838Z,98151.84
2022-09-25T11:44:27.552Z,98151.91
2022-09-25T11:47:36.648Z,98156.06
2022-09-25T11:50:47.896Z,98152.75
2022-09-25T11:54:12.390Z,98151.47
2022-09-25T11:57:24.154Z,98140.88
2022-09-25T12:00:30.838Z,98135.03
2022-09-25T12:03:43.377Z,98131.72
2022-09-25T12:06:55.153Z,98134.53
2022-09-25T12:10:08.767Z,98128.03
2022-09-25T12:13:13.907Z,98131.72
2022-09-25T12:16:20.815Z,98116.84
2022-09-25T12:19:32.507Z,98127.66
2022-09-25T12:22:44.290Z,98112.22
2022-09-25T12:25:56.173Z,98117.25
2022-09-25T12:29:14.630Z,98109.44
2022-09-25T12:32:28.586Z,98115.59
2022-09-25T12:35:41.595Z,98107.69
2022-09-25T12:38:50.594Z,98106.91
2022-09-25T12:41:56.882Z,98104.81
2022-09-25T12:45:02.506Z,98103.97
2022-09-25T12:48:10.556Z,98097.72
2022-09-25T12:51:18.639Z,98098.22
2022-09-25T12:54:25.458Z,98090.97
2022-09-25T12:57:32.174Z,98087.41
2022-09-25T13:00:37.299Z,98090.34
2022-09-25T13:03:45.360Z,98085.94
2022-09-25T13:06:52.534Z,98085.09
2022-09-25T13:09:55.255Z,98070.44
2022-09-25T13:13:00.566Z,98087.72
2022-09-25T13:16:03.458Z,98082.88
2022-09-25T13:19:21.131Z,98085.06
2022-09-25T13:22:26.430Z,98078.25
2022-09-25T13:25:29.376Z,98083.53
2022-09-25T13:28:34.377Z,98082.31
2022-09-25T13:31:43.139Z,98088.31
2022-09-25T13:34:46.189Z,98091.53
2022-09-25T13:37:54.666Z,98086.25
2022-09-25T13:40:56.518Z,98084.63
2022-09-25T13:44:41.241Z,98075.63
2022-09-25T13:48:06.071Z,98085.69
2022-09-25T13:51:28.742Z,98082.47
2022-09-25T13:54:34.426Z,98092.16
2022-09-25T13:58:03.632Z,98084.63
2022-09-25T14:01:12.821Z,98093.19
2022-09-25T14:04:22.136Z,98083.97
2022-09-25T14:07:26.608Z,98080.19
2022-09-25T14:10:30.646Z,98076.94
2022-09-25T14:13:34.956Z,98087.00
2022-09-25T14:16:43.186Z,98084.50
2022-09-25T14:19:48.508Z,98075.38
2022-09-25T14:22:55.997Z,98066.94
2022-09-25T14:26:00.818Z,98073.69
2022-09-25T14:29:03.440Z,98072.47
2022-09-25T14:32:36.504Z,98073.16
2022-09-25T14:35:43.425Z,98069.34
2022-09-25T14:38:58.909Z,98062.06
2022-09-25T14:42:21.390Z,98059.72
2022-09-25T14:45:41.714Z,98071.59
2022-09-25T14:48:47.823Z,98063.25
2022-09-25T14:51:51.562Z,98051.22
2022-09-25T14:54:56.958Z,98053.19
2022-09-25T14:58:01.940Z,98060.28
2022-09-25T15:01:15.053Z,98059.78
2022-09-25T15:04:26.958Z,98049.75
2022-09-25T15:07:29.631Z,98053.44
2022-09-25T15:10:34.945Z,98056.69
2022-09-25T15:13:39.048Z,98052.19
2022-09-25T15:17:01.060Z,98048.25
2022-09-25T15:20:09.179Z,98048.22
2022-09-25T15:23:17.380Z,98045.25
2022-09-25T15:26:20.366Z,98037.25
2022-09-25T15:29:25.748Z,98043.66
2022-09-25T15:32:30.596Z,98038.28
2022-09-25T15:35:33.595Z,98046.03
2022-09-25T15:38:37.613Z,98047.44
2022-09-25T15:41:40.330Z,98051.38
2022-09-25T15:44:44.926Z,98043.53
2022-09-25T15:47:53.395Z,98039.84
2022-09-25T15:50:56.544Z,98039.16
2022-09-25T15:54:01.352Z,98048.09
2022-09-25T15:57:07.942Z,98047.41
2022-09-25T16:00:36.796Z,98035.00
2022-09-25T16:03:56.968Z,98037.81
2022-09-25T16:06:59.631Z,98045.16
2022-09-25T16:10:05.213Z,98046.47
2022-09-25T16:13:20.480Z,98045.38
2022-09-25T16:16:29.434Z,98049.69
2022-09-25T16:19:34.578Z,98053.75
2022-09-25T16:22:42.882Z,98045.13
2022-09-25T16:25:46.020Z,98062.66
2022-09-25T16:28:54.916Z,98057.50
2022-09-25T16:32:03.823Z,98059.47
2022-09-25T16:35:07.160Z,98066.09
2022-09-25T16:38:27.582Z,98062.63
2022-09-25T16:41:30.438Z,98065.28
2022-09-25T16:44:45.077Z,98059.88
2022-09-25T16:47:49.651Z,98055.84
2022-09-25T16:50:52.592Z,98068.34
2022-09-25T16:53:58.210Z,98071.31
2022-09-25T16:57:02.381Z,98067.53
2022-09-25T17:00:06.421Z,98076.44
2022-09-25T17:03:11.432Z,98078.19
2022-09-25T17:06:14.047Z,98079.09
2022-09-25T17:09:18.270Z,98076.44
2022-09-25T17:12:22.918Z,98081.66
2022-09-25T17:15:29.201Z,98086.28
2022-09-25T17:18:33.280Z,98097.84
2022-09-25T17:21:35.858Z,98105.94
2022-09-25T17:24:38.659Z,98111.59
2022-09-25T17:27:41.451Z,98110.47
2022-09-25T17:30:45.323Z,98112.69
2022-09-25T17:33:50.872Z,98119.50
2022-09-25T17:36:53.653Z,98115.69
2022-09-25T17:39:56.197Z,98114.09
2022-09-25T17:42:58.804Z,98111.00
2022-09-25T17:46:02.172Z,98114.59
2022-09-25T17:49:06.228Z,98120.53
2022-09-25T17:52:11.128Z,98121.25
2022-09-25T17:55:17.298Z,98118.34
2022-09-25T17:58:19.847Z,98125.06
2022-09-25T18:01:23.753Z,98117.91
2022-09-25T18:04:28.067Z,98118.50
2022-09-25T18:07:33.715Z,98129.16
2022-09-25T18:10:37.224Z,98126.31
2022-09-25T18:13:41.854Z,98126.03
2022-09-25T18:16:45.938Z,98132.22
2022-09-25T18:20:07.368Z,98140.47
2022-09-25T18:23:10.132Z,98141.69
2022-09-25T18:26:12.893Z,98152.34
2022-09-25T18:29:17.064Z,98144.38
2022-09-25T18:32:19.763Z,98153.41
2022-09-25T18:35:24.580Z,98155.34
2022-09-25T18:38:27.302Z,98163.53
2022-09-25T18:41:31.110Z,98154.25
2022-09-25T18:44:42.234Z,98146.47
2022-09-25T18:47:46.498Z,98153.91
2022-09-25T18:50:51.501Z,98160.72
2022-09-25T18:53:56.641Z,98157.06
2022-09-25T18:56:59.451Z,98159.63
2022-09-25T19:00:02.742Z,98165.00
2022-09-25T19:03:06.079Z,98164.28
2022-09-25T19:06:10.439Z,98165.53
2022-09-25T19:09:16.690Z,98171.16
2022-09-25T19:12:20.476Z,98167.25
2022-09-25T19:15:25.028Z,98176.75
2022-09-25T19:18:27.883Z,98178.81
2022-09-25T19:21:33.153Z,98176.00
2022-09-25T19:24:38.238Z,98179.63
2022-09-25T19:27:41.096Z,98188.50
2022-09-25T19:30:44.498Z,98185.41
2022-09-25T19:33:48.133Z,98184.13
2022-09-25T19:36:54.009Z,98186.16
2022-09-25T19:40:14.859Z,98198.28
2022-09-25T19:43:18.212Z,98188.03
2022-09-25T19:46:22.383Z,98202.41
2022-09-25T19:49:25.590Z,98205.53
2022-09-25T19:52:30.141Z,98207.84
2022-09-25T19:55:37.070Z,98204.16
2022-09-25T19:58:40.008Z,98208.03
2022-09-25T20:01:43.962Z,98205.34
2022-09-25T20:04:48.190Z,98206.31
2022-09-25T20:07:52.615Z,98199.56
2022-09-25T20:10:55.276Z,98201.47
2022-09-25T20:13:58.460Z,98193.13
2022-09-25T20:17:02.818Z,98195.88
2022-09-25T20:20:07.731Z,98196.63
2022-09-25T20:23:11.998Z,98193.53
2022-09-25T20:26:16.547Z,98186.34
2022-09-25T20:29:19.713Z,98184.41
2022-09-25T20:32:22.302Z,98190.91
2022-09-25T20:35:24.988Z,98191.84
2022-09-25T20:38:29.354Z,98189.25
2022-09-25T20:41:32.239Z,98191.19
2022-09-25T20:44:34.918Z,98195.50
2022-09-25T20:47:45.819Z,98198.91
2022-09-25T20:50:51.183Z,98200.28
2022-09-25T20:53:57.994Z,98206.25
2022-09-25T20:57:00.796Z,98197.19
2022-09-25T21:00:04.197Z,98196.38
2022-09-25T21:03:07.221Z,98205.91
2022-09-25T21:06:12.081Z,98190.25
2022-09-25T21:09:20.412Z,98190.69
2022-09-25T21:12:23.024Z,98188.19
2022-09-25T21:15:27.790Z,98191.63
2022-09-25T21:18:30.522Z,98192.63
2022-09-25T21:21:34.400Z,98185.44
2022-09-25T21:24:39.536Z,98187.28
2022-09-25T21:27:42.308Z,98185.31
2022-09-25T21:30:44.973Z,98180.75
2022-09-25T21:33:47.768Z,98186.59
2022-09-25T21:36:50.590Z,98174.75
2022-09-25T21:39:54.658Z,98183.28
2022-09-25T21:42:57.244Z,98176.00
2022-09-25T21:46:00.598Z,98176.78
2022-09-25T21:49:05.141Z,98179.41
2022-09-25T21:52:08.757Z,98183.78
2022-09-25T21:55:12.863Z,98184.56
2022-09-25T21:58:16.200Z,98179.19
2022-09-25T22:01:20.629Z,98184.78
2022-09-25T22:04:23.238Z,98187.63
2022-09-25T22:07:25.994Z,98177.38
2022-09-25T22:10:30.967Z,98183.28
2022-09-25T22:13:35.507Z,98182.97
2022-09-25T22:16:39.802Z,98175.19
2022-09-25T22:19:42.509Z,98174.97
2022-09-25T22:22:48.969Z,98166.19
2022-09-25T22:25:53.074Z,98171.53
2022-09-25T22:28:56.205Z,98170.50
2022-09-25T22:31:58.933Z,98170.16
2022-09-25T22:35:01.602Z,98164.25
2022-09-25T22:38:04.665Z,98174.72
2022-09-25T22:41:11.180Z,98180.09
2022-09-25T22:44:13.921Z,98175.31
2022-09-25T22:47:16.469Z,98173.28
2022-09-25T22:50:19.097Z,98171.31
2022-09-25T22:53:22.486Z,98170.53
2022-09-25T22:56:28.979Z,98159.00
2022-09-25T22:59:31.655Z,98156.72
2022-09-25T23:02:34.353Z,98154.91
2022-09-25T23:05:37.427Z,98157.84
2022-09-25T23:08:39.981Z,98157.41
2022-09-25T23:11:44.403Z,98147.84
2022-09-25T23:14:47.067Z,98152.97
2022-09-25T23:17:49.686Z,98152.63
2022-09-25T23:20:55.678Z,98143.59
2022-09-25T23:23:59.344Z,98147.50
2022-09-25T23:27:03.211Z,98133.94
2022-09-25T23:30:06.570Z,98137.56
2022-09-25T23:33:09.288Z,98127.31
2022-09-25T23:36:13.635Z,98122.50
2022-09-25T23:39:20.559Z,98128.69
2022-09-25T23:42:24.574Z,98120.03
2022-09-25T23:45:28.147Z,98109.53
2022-09-25T23:48:30.733Z,98113.63
2022-09-25T23:51:33.548Z,98108.38
2022-09-25T23:54:36.938Z,98109.75
2022-09-25T23:57:40.935Z,98112.25
